Main page
METAR-TAF:

METAR-TAF

Airports :

Copenhagen Airport

Copenhagen, Denmark

latitude: 55-37N, longitude: 012-39E, elevation: 5 m

Current weather observation

The report was made 29 minutes ago, at 07:50 UTC
Wind 15 kt from the East
Temperature 19°C
Humidity 64%
Pressure 1012 hPa
Visibility 10 km or more
no clouds below 1500 m and no cumulonimbus

METAR: EKCH 220750Z 08015KT CAVOK 19/12 Q1012 NOSIG

Time: 10:19 (08:19 UTC)

Forecast

The report was made 3 hours and 16 minutes ago, at 05:03 UTC
Forecast valid from 22 at 06 UTC to 23 at 06 UTC
Wind 12 kt from the East
Visibility 10 km or more
no clouds below 1500 m and no cumulonimbus
Temporary
from 22 at 06 UTC to 22 at 18 UTC
Wind 15 kt from the East with gusts up to 25 kt

TAF: EKCH 220503Z 2206/2306 08012KT CAVOK TEMPO 2206/2218 08015G25KT

Weather observations and forecasts of more than 4000 airports (METAR and TAF reports).

The available stations are represented by yellow and red dots on the map.

Hover mouse over dot to see the name of the station.

Then click to see weather observations and forecasts.

To change the map : click on the green buttons with a black cross to zoom in, on the green button with a dash to zoom out, or on the green arrows for adjacent maps.


METAR-TAF: